sensor_id;sensor_type;location;lat;lon;timestamp;P1;durP1;ratioP1;P2;durP2;ratioP2
46689;SDS011;32423;45.398;10.874;2023-04-06T00:02:38;8.87;;;4.80;;
46689;SDS011;32423;45.398;10.874;2023-04-06T00:05:30;14.10;;;6.18;;
46689;SDS011;32423;45.398;10.874;2023-04-06T00:08:25;6.03;;;4.20;;
46689;SDS011;32423;45.398;10.874;2023-04-06T00:11:19;7.50;;;4.30;;
46689;SDS011;32423;45.398;10.874;2023-04-06T00:14:11;6.63;;;4.53;;
46689;SDS011;32423;45.398;10.874;2023-04-06T00:17:06;6.78;;;4.38;;
46689;SDS011;32423;45.398;10.874;2023-04-06T00:20:00;7.07;;;4.17;;
46689;SDS011;32423;45.398;10.874;2023-04-06T00:22:55;5.83;;;3.73;;
46689;SDS011;32423;45.398;10.874;2023-04-06T00:25:50;10.85;;;4.32;;
46689;SDS011;32423;45.398;10.874;2023-04-06T00:28:44;8.75;;;4.53;;
46689;SDS011;32423;45.398;10.874;2023-04-06T00:31:39;6.50;;;3.95;;
46689;SDS011;32423;45.398;10.874;2023-04-06T00:34:33;5.60;;;3.15;;
46689;SDS011;32423;45.398;10.874;2023-04-06T00:37:25;6.90;;;3.90;;
46689;SDS011;32423;45.398;10.874;2023-04-06T00:40:20;10.43;;;4.18;;
46689;SDS011;32423;45.398;10.874;2023-04-06T00:43:15;10.80;;;5.63;;
46689;SDS011;32423;45.398;10.874;2023-04-06T00:46:09;7.30;;;4.25;;
46689;SDS011;32423;45.398;10.874;2023-04-06T00:49:01;13.18;;;4.72;;
46689;SDS011;32423;45.398;10.874;2023-04-06T00:51:56;6.50;;;4.18;;
46689;SDS011;32423;45.398;10.874;2023-04-06T00:54:50;9.63;;;4.53;;
46689;SDS011;32423;45.398;10.874;2023-04-06T00:57:45;5.90;;;4.03;;
46689;SDS011;32423;45.398;10.874;2023-04-06T01:00:39;8.82;;;3.70;;
46689;SDS011;32423;45.398;10.874;2023-04-06T01:03:36;7.63;;;4.38;;
46689;SDS011;32423;45.398;10.874;2023-04-06T01:06:35;7.13;;;3.60;;
46689;SDS011;32423;45.398;10.874;2023-04-06T01:09:30;9.73;;;4.57;;
46689;SDS011;32423;45.398;10.874;2023-04-06T01:12:27;7.82;;;4.65;;
46689;SDS011;32423;45.398;10.874;2023-04-06T01:15:20;12.27;;;5.50;;
46689;SDS011;32423;45.398;10.874;2023-04-06T01:18:12;9.45;;;4.72;;
46689;SDS011;32423;45.398;10.874;2023-04-06T01:21:15;11.70;;;4.63;;
46689;SDS011;32423;45.398;10.874;2023-04-06T01:24:25;10.10;;;4.15;;
46689;SDS011;32423;45.398;10.874;2023-04-06T01:27:37;7.45;;;4.45;;
46689;SDS011;32423;45.398;10.874;2023-04-06T01:30:35;7.53;;;4.40;;
46689;SDS011;32423;45.398;10.874;2023-04-06T01:33:32;9.35;;;4.82;;
46689;SDS011;32423;45.398;10.874;2023-04-06T01:36:26;13.93;;;4.57;;
46689;SDS011;32423;45.398;10.874;2023-04-06T01:39:28;6.43;;;3.88;;
46689;SDS011;32423;45.398;10.874;2023-04-06T01:45:17;7.68;;;4.50;;
46689;SDS011;32423;45.398;10.874;2023-04-06T01:48:13;7.50;;;3.78;;
46689;SDS011;32423;45.398;10.874;2023-04-06T01:51:08;6.68;;;3.10;;
46689;SDS011;32423;45.398;10.874;2023-04-06T01:54:08;6.53;;;3.63;;
46689;SDS011;32423;45.398;10.874;2023-04-06T01:57:29;8.25;;;3.97;;
46689;SDS011;32423;45.398;10.874;2023-04-06T02:00:49;9.65;;;4.45;;
46689;SDS011;32423;45.398;10.874;2023-04-06T02:03:46;5.18;;;3.47;;
46689;SDS011;32423;45.398;10.874;2023-04-06T02:06:33;9.95;;;4.15;;
46689;SDS011;32423;45.398;10.874;2023-04-06T02:09:28;9.23;;;3.60;;
46689;SDS011;32423;45.398;10.874;2023-04-06T02:12:18;6.88;;;3.90;;
46689;SDS011;32423;45.398;10.874;2023-04-06T02:15:13;11.00;;;4.63;;
46689;SDS011;32423;45.398;10.874;2023-04-06T02:18:05;8.77;;;4.38;;
46689;SDS011;32423;45.398;10.874;2023-04-06T02:21:01;16.45;;;4.20;;
46689;SDS011;32423;45.398;10.874;2023-04-06T02:23:55;7.20;;;4.43;;
46689;SDS011;32423;45.398;10.874;2023-04-06T02:26:50;8.13;;;4.35;;
46689;SDS011;32423;45.398;10.874;2023-04-06T02:29:42;10.93;;;4.07;;
46689;SDS011;32423;45.398;10.874;2023-04-06T02:32:35;18.25;;;4.03;;
46689;SDS011;32423;45.398;10.874;2023-04-06T02:35:30;9.57;;;3.10;;
46689;SDS011;32423;45.398;10.874;2023-04-06T02:38:24;5.93;;;3.45;;
46689;SDS011;32423;45.398;10.874;2023-04-06T02:41:20;13.73;;;4.05;;
46689;SDS011;32423;45.398;10.874;2023-04-06T02:44:16;8.32;;;3.60;;
46689;SDS011;32423;45.398;10.874;2023-04-06T02:47:10;9.80;;;3.50;;
46689;SDS011;32423;45.398;10.874;2023-04-06T02:50:03;13.98;;;4.28;;
46689;SDS011;32423;45.398;10.874;2023-04-06T02:53:02;6.82;;;3.53;;
46689;SDS011;32423;45.398;10.874;2023-04-06T02:55:57;16.30;;;4.47;;
46689;SDS011;32423;45.398;10.874;2023-04-06T02:59:00;10.77;;;3.70;;
46689;SDS011;32423;45.398;10.874;2023-04-06T03:01:54;7.60;;;3.65;;
46689;SDS011;32423;45.398;10.874;2023-04-06T03:04:50;3.88;;;2.40;;
46689;SDS011;32423;45.398;10.874;2023-04-06T03:07:47;7.82;;;3.70;;
46689;SDS011;32423;45.398;10.874;2023-04-06T03:10:53;4.35;;;3.15;;
46689;SDS011;32423;45.398;10.874;2023-04-06T03:13:53;9.05;;;3.53;;
46689;SDS011;32423;45.398;10.874;2023-04-06T03:16:45;10.05;;;4.00;;
46689;SDS011;32423;45.398;10.874;2023-04-06T03:22:33;5.40;;;3.38;;
46689;SDS011;32423;45.398;10.874;2023-04-06T03:25:30;8.80;;;3.28;;
46689;SDS011;32423;45.398;10.874;2023-04-06T03:28:25;11.30;;;3.50;;
46689;SDS011;32423;45.398;10.874;2023-04-06T03:31:20;10.52;;;3.42;;
46689;SDS011;32423;45.398;10.874;2023-04-06T03:34:16;7.85;;;4.10;;
46689;SDS011;32423;45.398;10.874;2023-04-06T03:37:05;11.90;;;4.00;;
46689;SDS011;32423;45.398;10.874;2023-04-06T03:40:03;11.18;;;3.90;;
46689;SDS011;32423;45.398;10.874;2023-04-06T03:42:58;11.50;;;3.03;;
46689;SDS011;32423;45.398;10.874;2023-04-06T03:45:54;4.20;;;3.47;;
46689;SDS011;32423;45.398;10.874;2023-04-06T03:48:49;9.63;;;4.25;;
46689;SDS011;32423;45.398;10.874;2023-04-06T03:51:43;23.65;;;4.45;;
46689;SDS011;32423;45.398;10.874;2023-04-06T03:54:38;9.15;;;4.35;;
46689;SDS011;32423;45.398;10.874;2023-04-06T03:57:33;10.05;;;3.85;;
46689;SDS011;32423;45.398;10.874;2023-04-06T04:00:27;12.30;;;3.83;;
46689;SDS011;32423;45.398;10.874;2023-04-06T04:03:22;6.07;;;3.75;;
46689;SDS011;32423;45.398;10.874;2023-04-06T04:06:16;10.35;;;4.20;;
46689;SDS011;32423;45.398;10.874;2023-04-06T04:09:11;9.18;;;4.35;;
46689;SDS011;32423;45.398;10.874;2023-04-06T04:12:06;8.70;;;4.38;;
46689;SDS011;32423;45.398;10.874;2023-04-06T04:14:58;11.20;;;4.85;;
46689;SDS011;32423;45.398;10.874;2023-04-06T04:17:52;12.25;;;4.97;;
46689;SDS011;32423;45.398;10.874;2023-04-06T04:20:47;12.98;;;5.72;;
46689;SDS011;32423;45.398;10.874;2023-04-06T04:23:42;10.27;;;4.82;;
46689;SDS011;32423;45.398;10.874;2023-04-06T04:26:36;17.50;;;6.55;;
46689;SDS011;32423;45.398;10.874;2023-04-06T04:29:32;10.50;;;5.10;;
46689;SDS011;32423;45.398;10.874;2023-04-06T04:32:26;16.20;;;6.47;;
46689;SDS011;32423;45.398;10.874;2023-04-06T04:35:18;11.82;;;5.15;;
46689;SDS011;32423;45.398;10.874;2023-04-06T04:38:12;13.38;;;6.10;;
46689;SDS011;32423;45.398;10.874;2023-04-06T04:41:05;18.85;;;7.43;;
46689;SDS011;32423;45.398;10.874;2023-04-06T04:43:58;30.27;;;7.30;;
46689;SDS011;32423;45.398;10.874;2023-04-06T04:46:52;21.13;;;7.40;;
46689;SDS011;32423;45.398;10.874;2023-04-06T04:49:54;18.77;;;5.72;;
46689;SDS011;32423;45.398;10.874;2023-04-06T04:52:49;22.52;;;6.47;;
46689;SDS011;32423;45.398;10.874;2023-04-06T04:55:46;15.27;;;6.22;;
46689;SDS011;32423;45.398;10.874;2023-04-06T04:58:41;14.73;;;6.50;;
46689;SDS011;32423;45.398;10.874;2023-04-06T05:01:36;18.70;;;6.68;;
46689;SDS011;32423;45.398;10.874;2023-04-06T05:04:31;12.13;;;4.50;;
46689;SDS011;32423;45.398;10.874;2023-04-06T05:07:23;11.93;;;4.68;;
46689;SDS011;32423;45.398;10.874;2023-04-06T05:10:18;13.38;;;5.40;;
46689;SDS011;32423;45.398;10.874;2023-04-06T05:13:18;12.02;;;5.93;;
46689;SDS011;32423;45.398;10.874;2023-04-06T05:16:13;6.55;;;4.28;;
46689;SDS011;32423;45.398;10.874;2023-04-06T05:19:08;22.70;;;6.28;;
46689;SDS011;32423;45.398;10.874;2023-04-06T05:22:03;10.77;;;5.18;;
46689;SDS011;32423;45.398;10.874;2023-04-06T05:24:58;12.75;;;5.03;;
46689;SDS011;32423;45.398;10.874;2023-04-06T05:27:54;18.08;;;6.75;;
46689;SDS011;32423;45.398;10.874;2023-04-06T05:30:52;9.63;;;5.85;;
46689;SDS011;32423;45.398;10.874;2023-04-06T05:33:46;13.65;;;4.78;;
46689;SDS011;32423;45.398;10.874;2023-04-06T05:36:44;16.13;;;6.65;;
46689;SDS011;32423;45.398;10.874;2023-04-06T05:39:40;13.73;;;5.82;;
46689;SDS011;32423;45.398;10.874;2023-04-06T05:42:37;16.25;;;5.65;;
46689;SDS011;32423;45.398;10.874;2023-04-06T05:45:32;16.75;;;5.53;;
46689;SDS011;32423;45.398;10.874;2023-04-06T05:48:26;22.58;;;6.85;;
46689;SDS011;32423;45.398;10.874;2023-04-06T05:51:18;12.73;;;4.95;;
46689;SDS011;32423;45.398;10.874;2023-04-06T05:54:13;14.63;;;5.05;;
46689;SDS011;32423;45.398;10.874;2023-04-06T05:57:08;34.22;;;9.18;;
46689;SDS011;32423;45.398;10.874;2023-04-06T06:00:02;20.30;;;5.68;;
46689;SDS011;32423;45.398;10.874;2023-04-06T06:02:57;23.73;;;6.07;;
46689;SDS011;32423;45.398;10.874;2023-04-06T06:05:49;20.35;;;6.82;;
46689;SDS011;32423;45.398;10.874;2023-04-06T06:08:50;28.60;;;8.23;;
46689;SDS011;32423;45.398;10.874;2023-04-06T06:11:45;28.25;;;6.43;;
46689;SDS011;32423;45.398;10.874;2023-04-06T06:14:37;16.48;;;6.28;;
46689;SDS011;32423;45.398;10.874;2023-04-06T06:17:32;26.75;;;7.28;;
46689;SDS011;32423;45.398;10.874;2023-04-06T06:20:26;38.58;;;7.85;;
46689;SDS011;32423;45.398;10.874;2023-04-06T06:23:22;20.27;;;7.18;;
46689;SDS011;32423;45.398;10.874;2023-04-06T06:26:17;34.67;;;9.48;;
46689;SDS011;32423;45.398;10.874;2023-04-06T06:29:11;24.67;;;7.65;;
46689;SDS011;32423;45.398;10.874;2023-04-06T06:32:03;17.40;;;6.53;;
46689;SDS011;32423;45.398;10.874;2023-04-06T06:34:58;12.90;;;4.97;;
46689;SDS011;32423;45.398;10.874;2023-04-06T06:37:53;20.42;;;6.32;;
46689;SDS011;32423;45.398;10.874;2023-04-06T06:40:48;14.37;;;5.60;;
46689;SDS011;32423;45.398;10.874;2023-04-06T06:43:44;21.98;;;5.40;;
46689;SDS011;32423;45.398;10.874;2023-04-06T06:46:38;14.20;;;4.47;;
46689;SDS011;32423;45.398;10.874;2023-04-06T06:49:33;16.20;;;4.43;;
46689;SDS011;32423;45.398;10.874;2023-04-06T06:52:28;33.90;;;7.63;;
46689;SDS011;32423;45.398;10.874;2023-04-06T06:55:22;15.38;;;4.95;;
46689;SDS011;32423;45.398;10.874;2023-04-06T06:58:17;10.40;;;3.40;;
46689;SDS011;32423;45.398;10.874;2023-04-06T07:01:08;12.85;;;5.50;;
46689;SDS011;32423;45.398;10.874;2023-04-06T07:03:59;12.40;;;4.47;;
46689;SDS011;32423;45.398;10.874;2023-04-06T07:06:54;7.15;;;3.25;;
46689;SDS011;32423;45.398;10.874;2023-04-06T07:09:48;9.93;;;4.57;;
46689;SDS011;32423;45.398;10.874;2023-04-06T07:12:40;15.57;;;4.95;;
46689;SDS011;32423;45.398;10.874;2023-04-06T07:15:35;6.40;;;3.05;;
46689;SDS011;32423;45.398;10.874;2023-04-06T07:18:27;10.70;;;4.00;;
46689;SDS011;32423;45.398;10.874;2023-04-06T07:21:22;11.30;;;4.10;;
46689;SDS011;32423;45.398;10.874;2023-04-06T07:24:16;11.23;;;5.03;;
46689;SDS011;32423;45.398;10.874;2023-04-06T07:27:11;6.27;;;3.00;;
46689;SDS011;32423;45.398;10.874;2023-04-06T07:30:06;9.48;;;3.50;;
46689;SDS011;32423;45.398;10.874;2023-04-06T07:35:53;26.73;;;5.40;;
46689;SDS011;32423;45.398;10.874;2023-04-06T07:38:48;6.93;;;3.97;;
46689;SDS011;32423;45.398;10.874;2023-04-06T07:41:42;6.13;;;4.10;;
46689;SDS011;32423;45.398;10.874;2023-04-06T07:44:37;12.43;;;4.63;;
46689;SDS011;32423;45.398;10.874;2023-04-06T07:47:30;13.73;;;4.63;;
46689;SDS011;32423;45.398;10.874;2023-04-06T07:50:24;15.63;;;3.70;;
46689;SDS011;32423;45.398;10.874;2023-04-06T07:53:19;5.63;;;3.30;;
46689;SDS011;32423;45.398;10.874;2023-04-06T07:56:13;5.63;;;3.22;;
46689;SDS011;32423;45.398;10.874;2023-04-06T07:59:08;13.63;;;4.18;;
46689;SDS011;32423;45.398;10.874;2023-04-06T08:02:03;8.43;;;4.47;;
46689;SDS011;32423;45.398;10.874;2023-04-06T08:04:57;15.27;;;3.80;;
46689;SDS011;32423;45.398;10.874;2023-04-06T08:07:52;12.90;;;4.07;;
46689;SDS011;32423;45.398;10.874;2023-04-06T08:10:44;10.60;;;3.67;;
46689;SDS011;32423;45.398;10.874;2023-04-06T08:13:35;8.75;;;4.18;;
46689;SDS011;32423;45.398;10.874;2023-04-06T08:16:30;8.57;;;4.00;;
46689;SDS011;32423;45.398;10.874;2023-04-06T08:19:25;33.15;;;5.78;;
46689;SDS011;32423;45.398;10.874;2023-04-06T08:22:17;6.07;;;3.55;;
46689;SDS011;32423;45.398;10.874;2023-04-06T08:25:12;6.95;;;3.75;;
46689;SDS011;32423;45.398;10.874;2023-04-06T08:28:04;7.45;;;3.75;;
46689;SDS011;32423;45.398;10.874;2023-04-06T08:30:59;8.75;;;4.15;;
46689;SDS011;32423;45.398;10.874;2023-04-06T08:33:55;20.13;;;4.75;;
46689;SDS011;32423;45.398;10.874;2023-04-06T08:36:47;70.10;;;14.32;;
46689;SDS011;32423;45.398;10.874;2023-04-06T08:39:41;73.32;;;14.38;;
46689;SDS011;32423;45.398;10.874;2023-04-06T08:42:36;77.18;;;15.80;;
46689;SDS011;32423;45.398;10.874;2023-04-06T08:45:35;1999.90;;;944.47;;
46689;SDS011;32423;45.398;10.874;2023-04-06T08:48:30;1999.90;;;860.22;;
46689;SDS011;32423;45.398;10.874;2023-04-06T08:51:25;1999.90;;;999.90;;
46689;SDS011;32423;45.398;10.874;2023-04-06T08:54:19;1999.90;;;395.80;;
46689;SDS011;32423;45.398;10.874;2023-04-06T09:00:03;1923.75;;;275.38;;
46689;SDS011;32423;45.398;10.874;2023-04-06T09:03:00;13.45;;;12.35;;
46689;SDS011;32423;45.398;10.874;2023-04-06T09:05:55;60.67;;;10.35;;
46689;SDS011;32423;45.398;10.874;2023-04-06T09:08:56;5.25;;;4.32;;
46689;SDS011;32423;45.398;10.874;2023-04-06T09:11:49;10.43;;;3.58;;
46689;SDS011;32423;45.398;10.874;2023-04-06T09:14:42;8.63;;;4.03;;
46689;SDS011;32423;45.398;10.874;2023-04-06T09:17:36;8.80;;;3.75;;
46689;SDS011;32423;45.398;10.874;2023-04-06T09:20:28;10.90;;;3.08;;
46689;SDS011;32423;45.398;10.874;2023-04-06T09:23:20;5.95;;;3.05;;
46689;SDS011;32423;45.398;10.874;2023-04-06T09:29:08;6.15;;;2.90;;
46689;SDS011;32423;45.398;10.874;2023-04-06T09:32:12;4.78;;;2.67;;
46689;SDS011;32423;45.398;10.874;2023-04-06T09:35:10;10.02;;;3.03;;
46689;SDS011;32423;45.398;10.874;2023-04-06T09:38:10;7.80;;;3.15;;
46689;SDS011;32423;45.398;10.874;2023-04-06T09:41:03;3.40;;;2.67;;
46689;SDS011;32423;45.398;10.874;2023-04-06T09:44:29;11.02;;;2.55;;
46689;SDS011;32423;45.398;10.874;2023-04-06T09:47:13;4.13;;;2.63;;
46689;SDS011;32423;45.398;10.874;2023-04-06T09:50:09;6.32;;;3.25;;
46689;SDS011;32423;45.398;10.874;2023-04-06T09:53:03;11.50;;;3.40;;
46689;SDS011;32423;45.398;10.874;2023-04-06T09:55:55;7.93;;;3.08;;
46689;SDS011;32423;45.398;10.874;2023-04-06T09:58:54;7.28;;;3.28;;
46689;SDS011;32423;45.398;10.874;2023-04-06T10:01:51;11.35;;;3.15;;
46689;SDS011;32423;45.398;10.874;2023-04-06T10:04:50;9.50;;;3.55;;
46689;SDS011;32423;45.398;10.874;2023-04-06T10:07:48;4.95;;;3.55;;
46689;SDS011;32423;45.398;10.874;2023-04-06T10:10:45;9.05;;;3.38;;
46689;SDS011;32423;45.398;10.874;2023-04-06T10:13:37;7.00;;;3.28;;
46689;SDS011;32423;45.398;10.874;2023-04-06T10:16:32;7.97;;;3.28;;
46689;SDS011;32423;45.398;10.874;2023-04-06T10:19:27;4.32;;;3.63;;
46689;SDS011;32423;45.398;10.874;2023-04-06T10:22:29;5.90;;;3.70;;
46689;SDS011;32423;45.398;10.874;2023-04-06T10:25:32;6.00;;;3.83;;
46689;SDS011;32423;45.398;10.874;2023-04-06T10:28:29;8.35;;;4.25;;
46689;SDS011;32423;45.398;10.874;2023-04-06T10:31:25;5.75;;;4.03;;
46689;SDS011;32423;45.398;10.874;2023-04-06T10:34:20;6.57;;;3.38;;
46689;SDS011;32423;45.398;10.874;2023-04-06T10:37:26;4.70;;;3.53;;
46689;SDS011;32423;45.398;10.874;2023-04-06T10:40:25;4.80;;;3.45;;
46689;SDS011;32423;45.398;10.874;2023-04-06T10:43:21;7.80;;;3.92;;
46689;SDS011;32423;45.398;10.874;2023-04-06T10:46:13;5.18;;;3.38;;
46689;SDS011;32423;45.398;10.874;2023-04-06T10:49:16;8.90;;;3.20;;
46689;SDS011;32423;45.398;10.874;2023-04-06T10:52:09;5.10;;;3.17;;
46689;SDS011;32423;45.398;10.874;2023-04-06T10:57:56;7.32;;;3.70;;
46689;SDS011;32423;45.398;10.874;2023-04-06T11:00:51;10.15;;;4.00;;
46689;SDS011;32423;45.398;10.874;2023-04-06T11:03:49;11.43;;;4.53;;
46689;SDS011;32423;45.398;10.874;2023-04-06T11:06:50;6.03;;;3.70;;
46689;SDS011;32423;45.398;10.874;2023-04-06T11:09:49;6.50;;;3.88;;
46689;SDS011;32423;45.398;10.874;2023-04-06T11:12:43;12.55;;;4.28;;
46689;SDS011;32423;45.398;10.874;2023-04-06T11:15:44;6.30;;;4.20;;
46689;SDS011;32423;45.398;10.874;2023-04-06T11:18:45;7.03;;;4.10;;
46689;SDS011;32423;45.398;10.874;2023-04-06T11:21:42;6.40;;;4.45;;
46689;SDS011;32423;45.398;10.874;2023-04-06T11:24:34;6.03;;;4.35;;
46689;SDS011;32423;45.398;10.874;2023-04-06T11:27:26;12.60;;;4.90;;
46689;SDS011;32423;45.398;10.874;2023-04-06T11:30:20;6.45;;;4.53;;
46689;SDS011;32423;45.398;10.874;2023-04-06T11:33:19;11.80;;;4.57;;
46689;SDS011;32423;45.398;10.874;2023-04-06T11:36:14;7.13;;;4.32;;
46689;SDS011;32423;45.398;10.874;2023-04-06T11:39:09;6.65;;;5.03;;
46689;SDS011;32423;45.398;10.874;2023-04-06T11:42:03;8.10;;;4.60;;
46689;SDS011;32423;45.398;10.874;2023-04-06T11:44:58;7.68;;;4.53;;
46689;SDS011;32423;45.398;10.874;2023-04-06T11:47:59;7.80;;;4.97;;
46689;SDS011;32423;45.398;10.874;2023-04-06T11:50:57;11.85;;;4.75;;
46689;SDS011;32423;45.398;10.874;2023-04-06T11:53:51;6.10;;;5.10;;
46689;SDS011;32423;45.398;10.874;2023-04-06T11:56:46;10.52;;;4.93;;
46689;SDS011;32423;45.398;10.874;2023-04-06T11:59:41;11.70;;;5.32;;
46689;SDS011;32423;45.398;10.874;2023-04-06T12:02:33;7.30;;;4.85;;
46689;SDS011;32423;45.398;10.874;2023-04-06T12:05:23;6.97;;;4.95;;
46689;SDS011;32423;45.398;10.874;2023-04-06T12:08:17;7.05;;;4.18;;
46689;SDS011;32423;45.398;10.874;2023-04-06T12:11:14;11.38;;;5.25;;
46689;SDS011;32423;45.398;10.874;2023-04-06T12:14:09;15.15;;;4.68;;
46689;SDS011;32423;45.398;10.874;2023-04-06T12:17:03;8.30;;;5.57;;
46689;SDS011;32423;45.398;10.874;2023-04-06T12:19:58;10.23;;;5.97;;
46689;SDS011;32423;45.398;10.874;2023-04-06T12:22:52;10.25;;;5.00;;
46689;SDS011;32423;45.398;10.874;2023-04-06T12:25:47;7.38;;;5.03;;
46689;SDS011;32423;45.398;10.874;2023-04-06T12:28:42;7.03;;;5.57;;
46689;SDS011;32423;45.398;10.874;2023-04-06T12:31:36;9.57;;;5.53;;
46689;SDS011;32423;45.398;10.874;2023-04-06T12:34:32;6.40;;;4.65;;
46689;SDS011;32423;45.398;10.874;2023-04-06T12:37:26;28.57;;;5.70;;
46689;SDS011;32423;45.398;10.874;2023-04-06T12:40:21;19.67;;;5.80;;
46689;SDS011;32423;45.398;10.874;2023-04-06T12:43:15;9.02;;;6.43;;
46689;SDS011;32423;45.398;10.874;2023-04-06T12:46:10;12.80;;;6.30;;
46689;SDS011;32423;45.398;10.874;2023-04-06T12:49:04;15.70;;;5.60;;
46689;SDS011;32423;45.398;10.874;2023-04-06T12:51:56;7.22;;;5.60;;
46689;SDS011;32423;45.398;10.874;2023-04-06T12:54:48;8.48;;;5.45;;
46689;SDS011;32423;45.398;10.874;2023-04-06T12:57:40;12.15;;;4.90;;
46689;SDS011;32423;45.398;10.874;2023-04-06T13:00:36;8.13;;;5.38;;
46689;SDS011;32423;45.398;10.874;2023-04-06T13:03:30;13.00;;;5.90;;
46689;SDS011;32423;45.398;10.874;2023-04-06T13:06:25;14.48;;;4.93;;
46689;SDS011;32423;45.398;10.874;2023-04-06T13:09:17;10.75;;;5.15;;
46689;SDS011;32423;45.398;10.874;2023-04-06T13:12:09;10.05;;;5.20;;
46689;SDS011;32423;45.398;10.874;2023-04-06T13:15:01;10.68;;;5.90;;
46689;SDS011;32423;45.398;10.874;2023-04-06T13:17:56;14.25;;;5.70;;
46689;SDS011;32423;45.398;10.874;2023-04-06T13:20:51;6.78;;;4.85;;
46689;SDS011;32423;45.398;10.874;2023-04-06T13:23:43;12.32;;;5.32;;
46689;SDS011;32423;45.398;10.874;2023-04-06T13:26:37;15.65;;;5.22;;
46689;SDS011;32423;45.398;10.874;2023-04-06T13:29:29;9.32;;;5.35;;
46689;SDS011;32423;45.398;10.874;2023-04-06T13:32:21;11.57;;;5.10;;
46689;SDS011;32423;45.398;10.874;2023-04-06T13:35:14;11.00;;;4.75;;
46689;SDS011;32423;45.398;10.874;2023-04-06T13:38:06;8.73;;;5.50;;
46689;SDS011;32423;45.398;10.874;2023-04-06T13:41:01;7.47;;;4.93;;
46689;SDS011;32423;45.398;10.874;2023-04-06T13:43:56;7.68;;;4.47;;
46689;SDS011;32423;45.398;10.874;2023-04-06T13:46:48;8.02;;;5.60;;
46689;SDS011;32423;45.398;10.874;2023-04-06T13:49:42;9.25;;;4.97;;
46689;SDS011;32423;45.398;10.874;2023-04-06T13:52:37;11.85;;;6.00;;
46689;SDS011;32423;45.398;10.874;2023-04-06T13:55:31;7.97;;;5.50;;
46689;SDS011;32423;45.398;10.874;2023-04-06T13:58:26;7.80;;;5.25;;
46689;SDS011;32423;45.398;10.874;2023-04-06T14:01:21;11.45;;;5.85;;
46689;SDS011;32423;45.398;10.874;2023-04-06T14:04:15;9.13;;;6.18;;
46689;SDS011;32423;45.398;10.874;2023-04-06T14:07:10;11.38;;;5.55;;
46689;SDS011;32423;45.398;10.874;2023-04-06T14:10:04;23.23;;;5.17;;
46689;SDS011;32423;45.398;10.874;2023-04-06T14:13:03;14.70;;;5.72;;
46689;SDS011;32423;45.398;10.874;2023-04-06T14:15:55;9.10;;;5.95;;
46689;SDS011;32423;45.398;10.874;2023-04-06T14:18:49;11.00;;;6.15;;
46689;SDS011;32423;45.398;10.874;2023-04-06T14:21:44;6.32;;;4.28;;
46689;SDS011;32423;45.398;10.874;2023-04-06T14:24:37;16.35;;;6.05;;
46689;SDS011;32423;45.398;10.874;2023-04-06T14:27:26;8.05;;;5.15;;
46689;SDS011;32423;45.398;10.874;2023-04-06T14:30:21;11.50;;;5.55;;
46689;SDS011;32423;45.398;10.874;2023-04-06T14:33:15;5.10;;;3.53;;
46689;SDS011;32423;45.398;10.874;2023-04-06T14:36:07;12.70;;;5.40;;
46689;SDS011;32423;45.398;10.874;2023-04-06T14:39:02;10.45;;;5.18;;
46689;SDS011;32423;45.398;10.874;2023-04-06T14:41:59;9.40;;;5.70;;
46689;SDS011;32423;45.398;10.874;2023-04-06T14:44:52;10.82;;;5.72;;
46689;SDS011;32423;45.398;10.874;2023-04-06T14:47:46;10.60;;;4.47;;
46689;SDS011;32423;45.398;10.874;2023-04-06T14:50:41;10.93;;;6.10;;
46689;SDS011;32423;45.398;10.874;2023-04-06T14:53:42;7.10;;;5.53;;
46689;SDS011;32423;45.398;10.874;2023-04-06T14:56:37;9.07;;;5.73;;
46689;SDS011;32423;45.398;10.874;2023-04-06T14:59:32;10.13;;;5.87;;
46689;SDS011;32423;45.398;10.874;2023-04-06T15:02:26;6.93;;;5.10;;
46689;SDS011;32423;45.398;10.874;2023-04-06T15:05:21;9.57;;;5.72;;
46689;SDS011;32423;45.398;10.874;2023-04-06T15:08:16;12.40;;;6.18;;
46689;SDS011;32423;45.398;10.874;2023-04-06T15:11:13;8.48;;;4.90;;
46689;SDS011;32423;45.398;10.874;2023-04-06T15:14:08;10.17;;;5.50;;
46689;SDS011;32423;45.398;10.874;2023-04-06T15:17:02;10.43;;;5.83;;
46689;SDS011;32423;45.398;10.874;2023-04-06T15:19:57;7.20;;;5.07;;
46689;SDS011;32423;45.398;10.874;2023-04-06T15:22:52;5.75;;;3.83;;
46689;SDS011;32423;45.398;10.874;2023-04-06T15:25:44;10.20;;;5.43;;
46689;SDS011;32423;45.398;10.874;2023-04-06T15:28:38;7.80;;;3.67;;
46689;SDS011;32423;45.398;10.874;2023-04-06T15:31:33;9.10;;;5.32;;
46689;SDS011;32423;45.398;10.874;2023-04-06T15:34:29;9.75;;;5.43;;
46689;SDS011;32423;45.398;10.874;2023-04-06T15:37:22;11.25;;;6.00;;
46689;SDS011;32423;45.398;10.874;2023-04-06T15:40:17;21.60;;;5.50;;
46689;SDS011;32423;45.398;10.874;2023-04-06T15:43:09;10.52;;;4.90;;
46689;SDS011;32423;45.398;10.874;2023-04-06T15:46:04;7.55;;;5.45;;
46689;SDS011;32423;45.398;10.874;2023-04-06T15:48:58;12.35;;;5.63;;
46689;SDS011;32423;45.398;10.874;2023-04-06T15:51:53;9.80;;;5.77;;
46689;SDS011;32423;45.398;10.874;2023-04-06T15:54:47;18.30;;;6.00;;
46689;SDS011;32423;45.398;10.874;2023-04-06T15:57:42;10.95;;;5.78;;
46689;SDS011;32423;45.398;10.874;2023-04-06T16:00:37;10.05;;;5.88;;
46689;SDS011;32423;45.398;10.874;2023-04-06T16:03:31;9.32;;;5.25;;
46689;SDS011;32423;45.398;10.874;2023-04-06T16:06:26;12.77;;;4.97;;
46689;SDS011;32423;45.398;10.874;2023-04-06T16:09:20;6.57;;;4.83;;
46689;SDS011;32423;45.398;10.874;2023-04-06T16:12:12;8.88;;;5.72;;
46689;SDS011;32423;45.398;10.874;2023-04-06T16:15:07;10.23;;;5.30;;
46689;SDS011;32423;45.398;10.874;2023-04-06T16:17:59;13.35;;;5.50;;
46689;SDS011;32423;45.398;10.874;2023-04-06T16:20:54;9.00;;;5.88;;
46689;SDS011;32423;45.398;10.874;2023-04-06T16:23:46;10.18;;;6.03;;
46689;SDS011;32423;45.398;10.874;2023-04-06T16:26:41;9.80;;;5.28;;
46689;SDS011;32423;45.398;10.874;2023-04-06T16:29:35;9.20;;;4.80;;
46689;SDS011;32423;45.398;10.874;2023-04-06T16:32:30;13.50;;;5.25;;
46689;SDS011;32423;45.398;10.874;2023-04-06T16:35:22;9.68;;;4.95;;
46689;SDS011;32423;45.398;10.874;2023-04-06T16:38:16;10.48;;;5.75;;
46689;SDS011;32423;45.398;10.874;2023-04-06T16:41:12;8.40;;;5.47;;
46689;SDS011;32423;45.398;10.874;2023-04-06T16:44:07;9.00;;;5.38;;
46689;SDS011;32423;45.398;10.874;2023-04-06T16:47:01;8.07;;;5.23;;
46689;SDS011;32423;45.398;10.874;2023-04-06T16:49:56;15.25;;;5.78;;
46689;SDS011;32423;45.398;10.874;2023-04-06T16:52:45;8.85;;;6.03;;
46689;SDS011;32423;45.398;10.874;2023-04-06T16:55:40;15.40;;;6.23;;
46689;SDS011;32423;45.398;10.874;2023-04-06T16:58:34;9.07;;;5.57;;
46689;SDS011;32423;45.398;10.874;2023-04-06T17:01:29;9.65;;;5.47;;
46689;SDS011;32423;45.398;10.874;2023-04-06T17:04:23;9.32;;;5.60;;
46689;SDS011;32423;45.398;10.874;2023-04-06T17:07:16;16.05;;;6.38;;
46689;SDS011;32423;45.398;10.874;2023-04-06T17:10:13;11.00;;;6.22;;
46689;SDS011;32423;45.398;10.874;2023-04-06T17:13:03;10.05;;;5.63;;
46689;SDS011;32423;45.398;10.874;2023-04-06T17:15:55;15.43;;;6.30;;
46689;SDS011;32423;45.398;10.874;2023-04-06T17:18:47;13.13;;;5.20;;
46689;SDS011;32423;45.398;10.874;2023-04-06T17:21:42;16.60;;;5.38;;
46689;SDS011;32423;45.398;10.874;2023-04-06T17:24:37;21.80;;;7.13;;
46689;SDS011;32423;45.398;10.874;2023-04-06T17:27:31;12.98;;;5.95;;